createdAt,value
2023-04-01T00:01:41.483Z,97095.88
2023-04-01T00:04:19.841Z,97100.92
2023-04-01T00:06:56.503Z,97097.45
2023-04-01T00:09:34.771Z,97096.80
2023-04-01T00:12:11.465Z,97093.64
2023-04-01T00:14:48.647Z,97096.70
2023-04-01T00:17:25.551Z,97093.06
2023-04-01T00:20:02.461Z,97085.65
2023-04-01T00:22:41.549Z,97080.86
2023-04-01T00:25:19.473Z,97079.66
2023-04-01T00:27:56.600Z,97079.84
2023-04-01T00:30:36.344Z,97086.16
2023-04-01T00:33:15.549Z,97089.52
2023-04-01T00:35:52.776Z,97083.55
2023-04-01T00:38:30.673Z,97085.71
2023-04-01T00:41:13.729Z,97083.96
2023-04-01T00:43:50.565Z,97086.27
2023-04-01T00:46:31.281Z,97083.41
2023-04-01T00:49:10.690Z,97081.52
2023-04-01T00:51:47.919Z,97080.65
2023-04-01T00:54:25.619Z,97075.35
2023-04-01T00:57:12.855Z,97074.79
2023-04-01T00:59:55.565Z,97073.30
2023-04-01T01:02:39.509Z,97076.43
2023-04-01T01:05:16.709Z,97075.36
2023-04-01T01:08:25.849Z,97070.27
2023-04-01T01:11:04.628Z,97072.85
2023-04-01T01:13:54.635Z,97070.34
2023-04-01T01:16:44.824Z,97068.91
2023-04-01T01:19:27.634Z,97065.75
2023-04-01T01:22:29.794Z,97066.57
2023-04-01T01:25:22.025Z,97063.44
2023-04-01T01:28:15.598Z,97056.77
2023-04-01T01:31:29.625Z,97058.68
2023-04-01T01:34:20.727Z,97060.16
2023-04-01T01:37:01.688Z,97059.37
2023-04-01T01:39:44.609Z,97058.16
2023-04-01T01:42:40.668Z,97056.81
2023-04-01T01:45:22.182Z,97055.33
2023-04-01T01:48:01.761Z,97053.54
2023-04-01T01:50:39.794Z,97056.16
2023-04-01T01:53:24.608Z,97053.95
2023-04-01T01:56:02.707Z,97059.34
2023-04-01T01:58:58.989Z,97058.14
2023-04-01T02:01:45.976Z,97060.27
2023-04-01T02:04:27.997Z,97058.08
2023-04-01T02:07:19.954Z,97054.29
2023-04-01T02:10:01.670Z,97053.17
2023-04-01T02:12:40.090Z,97050.95
2023-04-01T02:15:25.891Z,97047.34
2023-04-01T02:18:05.444Z,97043.42
2023-04-01T02:20:44.649Z,97038.07
2023-04-01T02:23:25.941Z,97038.68
2023-04-01T02:26:05.750Z,97039.41
2023-04-01T02:28:46.721Z,97035.48
2023-04-01T02:31:26.054Z,97042.27
2023-04-01T02:34:03.748Z,97045.28
2023-04-01T02:36:41.801Z,97043.53
2023-04-01T02:39:20.779Z,97045.19
2023-04-01T02:41:59.695Z,97047.09
2023-04-01T02:44:38.708Z,97044.11
2023-04-01T02:47:19.333Z,97048.81
2023-04-01T02:49:57.786Z,97050.70
2023-04-01T02:52:39.997Z,97053.91
2023-04-01T02:55:22.555Z,97049.59
2023-04-01T02:58:00.837Z,97047.87
2023-04-01T03:00:38.834Z,97049.05
2023-04-01T03:03:17.970Z,97045.93
2023-04-01T03:05:54.949Z,97053.27
2023-04-01T03:08:31.823Z,97052.48
2023-04-01T03:11:09.774Z,97057.58
2023-04-01T03:13:48.061Z,97050.89
2023-04-01T03:16:30.986Z,97054.36
2023-04-01T03:19:12.789Z,97058.70
2023-04-01T03:21:53.958Z,97055.77
2023-04-01T03:24:32.758Z,97057.13
2023-04-01T03:27:09.697Z,97058.92
2023-04-01T03:29:48.849Z,97059.80
2023-04-01T03:32:28.090Z,97061.85
2023-04-01T03:35:04.746Z,97061.81
2023-04-01T03:37:42.774Z,97061.34
2023-04-01T03:40:24.172Z,97062.80
2023-04-01T03:43:08.270Z,97070.69
2023-04-01T03:45:46.462Z,97070.95
2023-04-01T03:48:23.790Z,97072.66
2023-04-01T03:51:05.065Z,97072.73
2023-04-01T03:53:43.591Z,97074.91
2023-04-01T03:56:22.921Z,97070.70
2023-04-01T03:58:59.902Z,97070.95
2023-04-01T04:01:36.957Z,97073.20
2023-04-01T04:04:13.933Z,97071.01
2023-04-01T04:06:50.875Z,97075.34
2023-04-01T04:09:27.879Z,97076.55
2023-04-01T04:12:07.909Z,97079.00
2023-04-01T04:14:44.860Z,97081.17
2023-04-01T04:17:25.524Z,97082.21
2023-04-01T04:20:04.821Z,97081.23
2023-04-01T04:22:43.067Z,97080.16
2023-04-01T04:25:20.994Z,97081.19
2023-04-01T04:28:01.165Z,97085.38
2023-04-01T04:30:37.858Z,97084.19
2023-04-01T04:33:18.026Z,97083.23
2023-04-01T04:35:55.066Z,97086.06
2023-04-01T04:38:31.900Z,97084.03
2023-04-01T04:41:08.879Z,97087.61
2023-04-01T04:43:46.901Z,97082.92
2023-04-01T04:46:25.012Z,97086.64
2023-04-01T04:49:12.433Z,97087.83
2023-04-01T04:51:49.434Z,97087.25
2023-04-01T04:54:31.462Z,97088.34
2023-04-01T04:57:08.963Z,97091.62
2023-04-01T04:59:50.892Z,97095.29
2023-04-01T05:02:58.018Z,97093.02
2023-04-01T05:05:35.105Z,97097.23
2023-04-01T05:08:12.988Z,97099.17
2023-04-01T05:10:50.984Z,97094.84
2023-04-01T05:13:30.903Z,97094.82
2023-04-01T05:16:12.202Z,97096.88
2023-04-01T05:18:48.992Z,97096.73
2023-04-01T05:21:26.995Z,97092.48
2023-04-01T05:24:03.896Z,97093.37
2023-04-01T05:26:44.143Z,97096.33
2023-04-01T05:29:23.936Z,97097.91
2023-04-01T05:32:08.051Z,97097.71
2023-04-01T05:34:46.058Z,97100.52
2023-04-01T05:37:25.036Z,97100.59
2023-04-01T05:40:03.995Z,97100.36
2023-04-01T05:42:43.367Z,97103.30
2023-04-01T05:45:23.327Z,97101.71
2023-04-01T05:48:18.237Z,97103.95
2023-04-01T05:50:56.122Z,97105.21
2023-04-01T05:53:34.547Z,97102.88
2023-04-01T05:56:20.033Z,97102.97
2023-04-01T05:59:06.409Z,97104.12
2023-04-01T06:01:46.047Z,97105.88
2023-04-01T06:04:30.666Z,97100.76
2023-04-01T06:07:09.977Z,97103.77
2023-04-01T06:09:48.073Z,97104.19
2023-04-01T06:12:51.187Z,97105.73
2023-04-01T06:16:11.222Z,97109.45
2023-04-01T06:19:03.006Z,97106.77
2023-04-01T06:22:10.420Z,97104.89
2023-04-01T06:25:11.523Z,97110.04
2023-04-01T06:28:09.257Z,97111.91
2023-04-01T06:31:13.210Z,97110.01
2023-04-01T06:34:10.156Z,97108.02
2023-04-01T06:37:02.031Z,97106.92
2023-04-01T06:40:06.135Z,97113.36
2023-04-01T06:42:55.159Z,97113.63
2023-04-01T06:46:07.499Z,97110.35
2023-04-01T06:49:22.057Z,97115.70
2023-04-01T06:52:49.139Z,97115.77
2023-04-01T06:55:59.340Z,97114.59
2023-04-01T06:59:17.137Z,97113.58
2023-04-01T07:02:26.469Z,97111.80
2023-04-01T07:05:08.062Z,97110.02
2023-04-01T07:07:54.113Z,97113.62
2023-04-01T07:10:48.433Z,97114.64
2023-04-01T07:14:08.137Z,97113.55
2023-04-01T07:16:59.591Z,97113.00
2023-04-01T07:19:44.097Z,97116.21
2023-04-01T07:22:47.087Z,97113.46
2023-04-01T07:25:52.346Z,97114.45
2023-04-01T07:28:46.743Z,97110.92
2023-04-01T07:31:49.100Z,97113.04
2023-04-01T07:34:47.437Z,97112.15
2023-04-01T07:37:34.184Z,97116.13
2023-04-01T07:40:19.117Z,97120.80
2023-04-01T07:43:06.497Z,97121.63
2023-04-01T07:46:03.261Z,97119.70
2023-04-01T07:48:53.466Z,97124.56
2023-04-01T07:51:54.185Z,97125.15
2023-04-01T07:54:57.118Z,97127.13
2023-04-01T07:57:42.373Z,97134.62
2023-04-01T08:00:43.752Z,97132.15
2023-04-01T08:03:32.327Z,97130.92
2023-04-01T08:06:34.177Z,97136.98
2023-04-01T08:09:26.315Z,97135.17
2023-04-01T08:12:35.154Z,97138.02
2023-04-01T08:15:36.687Z,97144.73
2023-04-01T08:18:42.620Z,97142.33
2023-04-01T08:21:49.236Z,97145.10
2023-04-01T08:24:46.518Z,97145.34
2023-04-01T08:27:50.455Z,97145.92
2023-04-01T08:30:36.579Z,97145.20
2023-04-01T08:33:20.491Z,97144.39
2023-04-01T08:36:14.383Z,97147.64
2023-04-01T08:39:12.181Z,97146.89
2023-04-01T08:42:16.689Z,97143.52
2023-04-01T08:45:21.350Z,97144.77
2023-04-01T08:48:24.514Z,97143.35
2023-04-01T08:51:17.391Z,97143.45
2023-04-01T08:54:18.423Z,97145.23
2023-04-01T08:57:15.217Z,97146.60
2023-04-01T09:00:50.591Z,97151.33
2023-04-01T09:04:20.350Z,97146.69
2023-04-01T09:07:21.305Z,97147.27
2023-04-01T09:10:28.080Z,97154.08
2023-04-01T09:13:43.315Z,97156.13
2023-04-01T09:16:41.294Z,97151.34
2023-04-01T09:19:42.238Z,97159.84
2023-04-01T09:22:40.292Z,97160.45
2023-04-01T09:25:45.460Z,97162.85
2023-04-01T09:28:33.297Z,97164.25
2023-04-01T09:31:42.708Z,97164.16
2023-04-01T09:34:44.264Z,97163.61
2023-04-01T09:37:34.331Z,97167.14
2023-04-01T09:40:20.517Z,97161.95
2023-04-01T09:43:22.330Z,97162.27
2023-04-01T09:46:40.853Z,97160.75
2023-04-01T09:49:40.346Z,97161.50
2023-04-01T09:52:40.519Z,97161.83
2023-04-01T09:56:17.901Z,97160.92
2023-04-01T09:59:34.390Z,97163.20
2023-04-01T10:02:41.818Z,97162.89
2023-04-01T10:05:25.368Z,97162.98
2023-04-01T10:08:31.500Z,97163.42
2023-04-01T10:11:33.432Z,97161.86
2023-04-01T10:14:49.410Z,97165.13
2023-04-01T10:17:58.523Z,97169.01
2023-04-01T10:20:43.863Z,97160.15
2023-04-01T10:23:55.434Z,97165.63
2023-04-01T10:27:01.483Z,97161.44
2023-04-01T10:30:49.350Z,97157.30
2023-04-01T10:34:08.368Z,97158.81
2023-04-01T10:37:06.471Z,97154.20
2023-04-01T10:40:16.708Z,97158.73
2023-04-01T10:43:49.524Z,97159.61
2023-04-01T10:46:50.561Z,97157.39
2023-04-01T10:49:53.822Z,97160.23
2023-04-01T10:53:22.720Z,97160.36
2023-04-01T10:56:48.346Z,97155.50
2023-04-01T11:00:11.657Z,97156.94
2023-04-01T11:03:33.651Z,97154.27
2023-04-01T11:06:42.303Z,97158.80
2023-04-01T11:10:15.888Z,97153.63
2023-04-01T11:13:14.539Z,97160.16
2023-04-01T11:16:16.680Z,97157.11
2023-04-01T11:19:31.451Z,97154.56
2023-04-01T11:22:34.508Z,97155.56
2023-04-01T11:25:29.659Z,97156.02
2023-04-01T11:28:54.498Z,97159.55
2023-04-01T11:31:47.023Z,97157.86
2023-04-01T11:34:51.794Z,97156.52
2023-04-01T11:37:57.946Z,97153.95
2023-04-01T11:41:12.638Z,97150.09
2023-04-01T11:44:30.534Z,97153.13
2023-04-01T11:47:36.840Z,97150.91
2023-04-01T11:50:35.804Z,97155.95
2023-04-01T11:53:45.571Z,97156.50
2023-04-01T11:56:45.665Z,97156.73
2023-04-01T12:00:02.696Z,97154.97
2023-04-01T12:03:18.045Z,97156.23
2023-04-01T12:06:09.847Z,97158.97
2023-04-01T12:09:24.122Z,97159.20
2023-04-01T12:12:14.566Z,97162.39
2023-04-01T12:15:36.245Z,97163.02
2023-04-01T12:18:25.643Z,97162.17
2023-04-01T12:21:10.608Z,97162.10
2023-04-01T12:24:01.665Z,97163.83
2023-04-01T12:27:00.011Z,97164.98
2023-04-01T12:29:36.580Z,97162.73
2023-04-01T12:32:50.849Z,97167.68
2023-04-01T12:35:28.639Z,97164.57
2023-04-01T12:38:37.654Z,97165.20
2023-04-01T12:41:44.855Z,97164.34
2023-04-01T12:44:59.920Z,97164.55
2023-04-01T12:48:22.758Z,97164.42
2023-04-01T12:51:15.672Z,97162.38
2023-04-01T12:54:24.882Z,97163.64
2023-04-01T12:57:25.860Z,97168.16
2023-04-01T13:00:13.662Z,97163.09
2023-04-01T13:03:11.498Z,97165.17
2023-04-01T13:06:18.528Z,97159.09
2023-04-01T13:09:12.831Z,97159.15
2023-04-01T13:11:56.590Z,97159.46
2023-04-01T13:14:47.666Z,97162.04
2023-04-01T13:17:37.616Z,97160.31
2023-04-01T13:21:13.768Z,97159.60
2023-04-01T13:24:16.657Z,97155.92
2023-04-01T13:27:15.617Z,97158.11
2023-04-01T13:29:58.894Z,97162.05
2023-04-01T13:32:53.520Z,97162.13
2023-04-01T13:35:59.697Z,97171.39
2023-04-01T13:39:08.661Z,97175.19
2023-04-01T13:41:45.714Z,97183.27
2023-04-01T13:44:43.950Z,97180.10
2023-04-01T13:47:47.788Z,97186.30
2023-04-01T13:50:51.980Z,97184.31
2023-04-01T13:54:11.735Z,97189.55
2023-04-01T13:56:52.958Z,97187.33
2023-04-01T13:59:50.491Z,97184.06
2023-04-01T14:03:02.022Z,97186.27
2023-04-01T14:06:00.783Z,97187.99
2023-04-01T14:08:47.742Z,97186.75
2023-04-01T14:11:39.806Z,97185.49
2023-04-01T14:14:47.971Z,97188.52
2023-04-01T14:17:46.714Z,97192.42
2023-04-01T14:20:52.767Z,97188.52
2023-04-01T14:23:36.249Z,97189.60
2023-04-01T14:26:40.729Z,97189.35
2023-04-01T14:29:35.827Z,97187.79
2023-04-01T14:32:24.227Z,97190.42
2023-04-01T14:35:19.751Z,97192.64
2023-04-01T14:38:12.799Z,97195.17
2023-04-01T14:41:21.838Z,97197.07
2023-04-01T14:44:32.921Z,97196.48
2023-04-01T14:47:32.260Z,97196.84
2023-04-01T14:50:24.805Z,97195.64
2023-04-01T14:53:27.862Z,97195.11
2023-04-01T14:56:14.850Z,97194.83
2023-04-01T14:59:11.811Z,97199.30
2023-04-01T15:02:02.163Z,97203.09
2023-04-01T15:05:04.811Z,97203.09
2023-04-01T15:08:11.948Z,97205.70
2023-04-01T15:11:02.181Z,97206.02
2023-04-01T15:14:10.948Z,97203.98
2023-04-01T15:17:09.795Z,97213.27
2023-04-01T15:20:27.306Z,97214.63
2023-04-01T15:23:16.802Z,97211.98
2023-04-01T15:26:45.282Z,97211.81
2023-04-01T15:29:42.851Z,97211.95
2023-04-01T15:32:56.006Z,97214.27
2023-04-01T15:35:57.186Z,97221.96
2023-04-01T15:39:03.842Z,97220.98
2023-04-01T15:42:08.816Z,97225.61
2023-04-01T15:45:45.473Z,97227.11
2023-04-01T15:48:40.989Z,97233.24
2023-04-01T15:51:28.992Z,97237.31
2023-04-01T15:54:32.575Z,97241.71
2023-04-01T15:57:21.935Z,97246.08
2023-04-01T16:00:18.852Z,97249.48
2023-04-01T16:03:24.199Z,97248.22
2023-04-01T16:06:24.871Z,97254.92
2023-04-01T16:09:17.922Z,97255.06
2023-04-01T16:12:03.132Z,97258.39
2023-04-01T16:15:17.925Z,97262.65
2023-04-01T16:18:24.877Z,97264.23
2023-04-01T16:21:40.167Z,97270.44
2023-04-01T16:24:54.133Z,97268.71
2023-04-01T16:27:36.072Z,97274.64
2023-04-01T16:30:36.194Z,97277.09
2023-04-01T16:33:26.197Z,97278.74
2023-04-01T16:36:27.924Z,97277.75
2023-04-01T16:39:24.168Z,97280.91
2023-04-01T16:42:34.929Z,97283.48
2023-04-01T16:45:19.389Z,97288.71
2023-04-01T16:48:06.923Z,97291.14
2023-04-01T16:50:56.922Z,97293.77
2023-04-01T16:53:49.033Z,97299.63
2023-04-01T16:56:37.085Z,97297.92
2023-04-01T16:59:24.069Z,97302.65
2023-04-01T17:02:16.958Z,97302.05
2023-04-01T17:05:03.294Z,97303.67
2023-04-01T17:08:08.007Z,97308.05
2023-04-01T17:11:24.314Z,97305.54
2023-04-01T17:14:32.009Z,97310.59
2023-04-01T17:17:28.323Z,97315.32
2023-04-01T17:20:40.965Z,97318.61
2023-04-01T17:23:35.013Z,97326.47
2023-04-01T17:26:35.049Z,97323.81
2023-04-01T17:29:34.013Z,97334.48
2023-04-01T17:32:37.411Z,97337.79
2023-04-01T17:35:45.184Z,97336.41
2023-04-01T17:38:28.014Z,97342.98
2023-04-01T17:41:15.214Z,97345.46
2023-04-01T17:44:30.095Z,97344.88
2023-04-01T17:47:29.620Z,97351.84
2023-04-01T17:50:41.406Z,97352.69
2023-04-01T17:53:33.975Z,97357.20
2023-04-01T17:56:24.073Z,97362.92
2023-04-01T17:59:13.039Z,97367.13
2023-04-01T18:02:25.114Z,97367.77
2023-04-01T18:05:21.047Z,97370.77
2023-04-01T18:08:15.193Z,97377.14
2023-04-01T18:11:15.138Z,97381.69
2023-04-01T18:14:06.355Z,97384.77
2023-04-01T18:17:08.415Z,97388.72
2023-04-01T18:20:08.104Z,97394.59
2023-04-01T18:23:00.981Z,97403.34
2023-04-01T18:26:02.655Z,97404.61
2023-04-01T18:29:16.086Z,97407.48
2023-04-01T18:32:01.107Z,97414.15
2023-04-01T18:35:03.167Z,97417.34
2023-04-01T18:38:11.051Z,97425.48
2023-04-01T18:41:21.103Z,97428.46
2023-04-01T18:44:29.133Z,97434.30
2023-04-01T18:47:28.182Z,97440.45
2023-04-01T18:50:17.311Z,97441.81
2023-04-01T18:52:58.124Z,97447.36
2023-04-01T18:55:56.090Z,97446.05
2023-04-01T18:58:46.723Z,97448.92
2023-04-01T19:01:52.222Z,97453.56
2023-04-01T19:05:25.127Z,97452.90
2023-04-01T19:08:29.152Z,97460.11
2023-04-01T19:11:28.548Z,97460.53
2023-04-01T19:14:34.133Z,97466.97
2023-04-01T19:17:30.903Z,97465.09
2023-04-01T19:20:23.164Z,97471.31
2023-04-01T19:23:43.162Z,97474.52
2023-04-01T19:26:26.185Z,97480.99
2023-04-01T19:29:05.807Z,97480.63
2023-04-01T19:31:48.168Z,97481.48
2023-04-01T19:34:52.204Z,97483.05
2023-04-01T19:37:58.198Z,97481.65
2023-04-01T19:40:47.341Z,97483.48
2023-04-01T19:43:41.163Z,97483.38
2023-04-01T19:46:33.696Z,97489.93
2023-04-01T19:49:26.486Z,97491.98
2023-04-01T19:52:23.316Z,97493.07
2023-04-01T19:55:16.687Z,97492.37
2023-04-01T19:58:04.315Z,97498.60
2023-04-01T20:00:49.213Z,97500.98
2023-04-01T20:03:50.702Z,97504.73
2023-04-01T20:06:52.509Z,97506.17
2023-04-01T20:09:58.201Z,97511.60
2023-04-01T20:12:54.242Z,97520.24
2023-04-01T20:15:54.374Z,97524.00
2023-04-01T20:18:37.297Z,97528.88
2023-04-01T20:21:30.730Z,97530.60
2023-04-01T20:24:09.326Z,97529.69
2023-04-01T20:26:54.389Z,97533.14
2023-04-01T20:29:33.318Z,97533.77
2023-04-01T20:32:30.436Z,97539.90
2023-04-01T20:35:37.028Z,97541.76
2023-04-01T20:39:00.333Z,97546.19
2023-04-01T20:41:45.326Z,97542.88
2023-04-01T20:44:44.368Z,97546.27
2023-04-01T20:47:43.376Z,97551.87
2023-04-01T20:50:38.677Z,97557.02
2023-04-01T20:53:32.349Z,97558.75
2023-04-01T20:56:32.597Z,97558.16
2023-04-01T20:59:16.744Z,97560.17
2023-04-01T21:02:17.464Z,97562.36
2023-04-01T21:05:04.375Z,97566.73
2023-04-01T21:07:56.310Z,97575.76
2023-04-01T21:10:54.360Z,97583.27
2023-04-01T21:13:51.443Z,97587.37
2023-04-01T21:16:50.452Z,97594.94
2023-04-01T21:19:49.384Z,97597.13
2023-04-01T21:22:40.380Z,97600.48
2023-04-01T21:25:43.344Z,97601.39
2023-04-01T21:28:28.532Z,97606.52
2023-04-01T21:31:25.483Z,97609.75
2023-04-01T21:34:27.391Z,97614.41
2023-04-01T21:37:18.401Z,97622.23
2023-04-01T21:40:33.364Z,97626.06
2023-04-01T21:43:37.464Z,97626.23
2023-04-01T21:46:40.412Z,97626.38
2023-04-01T21:49:31.926Z,97629.45
2023-04-01T21:52:38.412Z,97632.97
2023-04-01T21:55:45.799Z,97637.22
2023-04-01T21:58:40.423Z,97635.59
2023-04-01T22:01:35.933Z,97640.11
2023-04-01T22:04:38.447Z,97641.95
2023-04-01T22:07:20.459Z,97645.95
2023-04-01T22:10:13.481Z,97647.59
2023-04-01T22:13:07.190Z,97646.91
2023-04-01T22:16:08.540Z,97650.70
2023-04-01T22:18:54.751Z,97654.60
2023-04-01T22:21:46.450Z,97658.98
2023-04-01T22:24:32.662Z,97663.52
2023-04-01T22:27:36.557Z,97669.16
2023-04-01T22:30:24.535Z,97671.16
2023-04-01T22:33:05.440Z,97669.52
2023-04-01T22:36:17.708Z,97673.33
2023-04-01T22:39:26.853Z,97681.80
2023-04-01T22:42:28.612Z,97684.42
2023-04-01T22:45:41.506Z,97685.04
2023-04-01T22:48:36.498Z,97692.85
2023-04-01T22:51:29.521Z,97697.48
2023-04-01T22:54:35.476Z,97696.13
2023-04-01T22:57:25.717Z,97697.08
2023-04-01T23:00:35.596Z,97697.32
2023-04-01T23:03:29.585Z,97696.96
2023-04-01T23:06:09.900Z,97702.56
2023-04-01T23:09:10.541Z,97706.66
2023-04-01T23:12:05.045Z,97707.76
2023-04-01T23:15:07.615Z,97710.49
2023-04-01T23:18:04.588Z,97715.39
2023-04-01T23:20:58.631Z,97718.55
2023-04-01T23:24:05.792Z,97721.41
2023-04-01T23:27:03.928Z,97722.71
2023-04-01T23:29:42.624Z,97728.60
2023-04-01T23:32:29.513Z,97732.08
2023-04-01T23:35:14.592Z,97734.88
2023-04-01T23:37:51.625Z,97740.50
2023-04-01T23:40:28.715Z,97737.44
2023-04-01T23:43:06.606Z,97740.17
2023-04-01T23:45:43.543Z,97740.30
2023-04-01T23:48:31.568Z,97745.05
2023-04-01T23:51:10.825Z,97746.02
2023-04-01T23:53:48.884Z,97753.64
2023-04-01T23:56:25.680Z,97753.50
2023-04-01T23:59:07.023Z,97756.61
